Time;durP1;ratioP1;P1;durP2;ratioP2;P2;SDS_P1;SDS_P2;PMS_P1;PMS_P2;Temp;Humidity;BMP_temperature;BMP_pressure;BME280_temperature;BME280_humidity;BME280_pressure;Samples;Min_cycle;Max_cycle;Signal;HPM_P1;HPM_P2
2023/05/24 00:01:28;;;;;;;9.80;8.80;;;17.60;99.90;;;;;;10200610;29;20243;-83
2023/05/24 00:06:33;;;;;;;12.68;11.00;;;17.70;99.90;;;;;;10168616;29;20633;-83
2023/05/24 00:11:36;;;;;;;9.65;8.55;;;17.40;99.90;;;;;;10164187;29;21026;-84
2023/05/24 00:16:39;;;;;;;12.25;10.75;;;17.60;99.90;;;;;;10207751;29;20302;-84
2023/05/24 00:21:41;;;;;;;13.20;10.68;;;17.60;99.90;;;;;;10170327;29;20633;-84
2023/05/24 00:26:44;;;;;;;9.60;8.70;;;17.30;99.90;;;;;;10190620;29;20746;-85
2023/05/24 00:31:46;;;;;;;14.07;10.82;;;17.50;99.90;;;;;;10189384;29;20325;-84
2023/05/24 00:36:49;;;;;;;16.58;8.73;;;17.50;99.90;;;;;;10207276;29;20687;-84
2023/05/24 00:41:52;;;;;;;10.90;9.02;;;17.70;99.90;;;;;;10206584;29;20247;-84
2023/05/24 00:46:55;;;;;;;11.48;10.02;;;17.70;99.90;;;;;;10197138;29;20258;-84
2023/05/24 00:51:58;;;;;;;13.30;10.23;;;17.70;99.90;;;;;;10213175;29;20269;-84
2023/05/24 00:57:01;;;;;;;7.88;6.93;;;17.70;99.90;;;;;;10196914;29;20242;-84
2023/05/24 01:02:04;;;;;;;8.90;8.07;;;17.90;99.90;;;;;;10197166;29;20254;-85
2023/05/24 01:07:20;;;;;;;8.50;6.90;;;18.50;99.90;;;;;;10214593;29;20634;-85
2023/05/24 01:12:58;;;;;;;6.35;5.43;;;18.60;99.90;;;;;;10196622;29;20325;-85
2023/05/24 01:18:10;;;;;;;8.45;7.65;;;18.50;99.90;;;;;;10213911;29;20318;-84
2023/05/24 01:23:25;;;;;;;7.88;7.07;;;18.60;99.90;;;;;;10196129;29;20313;-84
2023/05/24 01:28:30;;;;;;;8.70;7.78;;;18.30;99.90;;;;;;10220324;29;20716;-85
2023/05/24 01:33:33;;;;;;;12.60;8.30;;;18.00;99.90;;;;;;10252277;28;20298;-85
2023/05/24 01:38:37;;;;;;;11.75;8.77;;;17.50;99.90;;;;;;10210629;28;20687;-85
2023/05/24 01:43:47;;;;;;;9.27;8.38;;;17.00;99.90;;;;;;10157736;29;20380;-84
2023/05/24 01:49:06;;;;;;;12.35;8.30;;;17.10;99.90;;;;;;10155756;29;20263;-84
2023/05/24 01:54:10;;;;;;;9.93;7.75;;;16.70;99.90;;;;;;10154982;29;20783;-85
2023/05/24 01:59:14;;;;;;;8.25;7.45;;;17.00;99.90;;;;;;10195038;29;20242;-85
2023/05/24 02:04:17;;;;;;;10.43;9.38;;;16.90;99.90;;;;;;10194117;29;20254;-85
2023/05/24 02:09:20;;;;;;;8.65;7.78;;;17.10;99.90;;;;;;10194149;29;20274;-85
2023/05/24 02:14:25;;;;;;;8.55;7.68;;;17.10;99.90;;;;;;10194028;29;20701;-85
2023/05/24 02:19:27;;;;;;;8.75;6.75;;;17.20;99.90;;;;;;10193983;29;20254;-85
2023/05/24 02:24:30;;;;;;;9.48;8.25;;;17.00;99.90;;;;;;10193350;29;20657;-85
2023/05/24 02:29:32;;;;;;;11.98;8.40;;;16.80;99.90;;;;;;10208259;29;20258;-85
2023/05/24 02:34:35;;;;;;;10.80;8.10;;;16.90;99.90;;;;;;10210189;29;20266;-85
2023/05/24 02:39:37;;;;;;;12.25;8.70;;;16.80;99.90;;;;;;10210326;29;20246;-85
2023/05/24 02:44:41;;;;;;;8.43;6.82;;;16.40;99.90;;;;;;10176936;29;20290;-85
2023/05/24 02:49:44;;;;;;;9.00;6.90;;;16.30;99.90;;;;;;10192152;29;20270;-85
2023/05/24 02:54:47;;;;;;;7.28;6.57;;;15.80;99.90;;;;;;10192918;29;20592;-85
2023/05/24 02:59:52;;;;;;;8.25;6.15;;;16.20;99.90;;;;;;10209318;29;20921;-86
2023/05/24 03:04:54;;;;;;;6.85;6.00;;;16.20;99.90;;;;;;10191307;29;20254;-85
2023/05/24 03:09:57;;;;;;;11.07;6.00;;;16.10;99.90;;;;;;10191588;29;20701;-85
2023/05/24 03:15:00;;;;;;;6.53;5.95;;;16.10;99.90;;;;;;10209370;29;20278;-85
2023/05/24 03:20:06;;;;;;;7.60;5.82;;;16.60;99.90;;;;;;10190936;29;20246;-84
2023/05/24 03:25:09;;;;;;;7.35;5.20;;;16.20;99.90;;;;;;10207463;29;20242;-84
2023/05/24 03:30:12;;;;;;;6.90;4.70;;;16.50;99.90;;;;;;10202050;29;20732;-85
2023/05/24 03:35:26;;;;;;;5.32;4.82;;;16.50;99.90;;;;;;10189962;29;20274;-84
2023/05/24 03:40:32;;;;;;;5.68;5.18;;;16.90;99.90;;;;;;10190304;29;20293;-85
2023/05/24 03:45:47;;;;;;;5.32;4.88;;;17.10;99.90;;;;;;10190164;29;20258;-85
2023/05/24 03:50:50;;;;;;;10.25;5.40;;;16.50;99.90;;;;;;10205954;29;20271;-85
2023/05/24 03:55:52;;;;;;;5.95;5.35;;;15.80;99.90;;;;;;10207500;29;20238;-85
2023/05/24 04:00:56;;;;;;;5.32;4.55;;;16.00;99.90;;;;;;10189394;29;20246;-85
2023/05/24 04:05:59;;;;;;;4.78;4.38;;;16.40;99.90;;;;;;10174232;29;20270;-85
2023/05/24 04:11:01;;;;;;;7.05;4.38;;;16.20;99.90;;;;;;10192563;29;20298;-85
2023/05/24 04:16:04;;;;;;;4.32;3.92;;;17.00;99.90;;;;;;10189200;29;20672;-85
2023/05/24 04:21:13;;;;;;;4.57;3.72;;;17.10;99.90;;;;;;10188042;29;20278;-85
2023/05/24 04:26:16;;;;;;;5.82;5.18;;;17.00;99.90;;;;;;10155583;29;20289;-84
2023/05/24 04:31:20;;;;;;;7.82;4.65;;;17.00;99.90;;;;;;10205128;29;20337;-85
2023/05/24 04:36:23;;;;;;;7.28;5.30;;;17.80;99.90;;;;;;10187334;29;20251;-84
2023/05/24 04:41:27;;;;;;;5.88;4.75;;;18.10;99.90;;;;;;10186075;29;20261;-84
2023/05/24 04:46:30;;;;;;;5.47;3.95;;;18.30;99.90;;;;;;10206044;29;20251;-84
2023/05/24 04:51:33;;;;;;;7.00;5.07;;;18.30;99.90;;;;;;10186166;29;20313;-84
2023/05/24 04:56:37;;;;;;;7.55;5.35;;;18.30;99.90;;;;;;10180767;29;20294;-84
2023/05/24 05:01:40;;;;;;;7.40;5.97;;;18.00;99.90;;;;;;10178059;29;20363;-84
2023/05/24 05:06:43;;;;;;;7.03;5.25;;;18.20;99.90;;;;;;10159968;29;20326;-83
2023/05/24 05:11:47;;;;;;;6.03;4.47;;;18.00;99.90;;;;;;10158768;29;20322;-84
2023/05/24 05:16:49;;;;;;;6.28;4.90;;;17.70;99.90;;;;;;10184248;29;20239;-84
2023/05/24 05:21:52;;;;;;;4.75;4.18;;;16.90;99.90;;;;;;10184416;29;20268;-84
2023/05/24 05:26:55;;;;;;;9.23;4.90;;;16.80;99.90;;;;;;10187966;29;20741;-84
2023/05/24 05:31:57;;;;;;;4.88;4.13;;;17.00;99.90;;;;;;10193792;28;21294;-85
2023/05/24 05:37:00;;;;;;;4.65;4.07;;;17.10;99.90;;;;;;10202987;29;20235;-84
2023/05/24 05:42:03;;;;;;;7.03;4.68;;;16.60;99.90;;;;;;10200046;29;20247;-84
2023/05/24 05:47:07;;;;;;;7.32;5.00;;;16.70;99.90;;;;;;10188271;29;20236;-85
2023/05/24 05:52:10;;;;;;;6.85;4.30;;;16.60;99.90;;;;;;10191391;29;20266;-85
2023/05/24 05:57:15;;;;;;;5.78;4.55;;;16.80;99.90;;;;;;10183598;29;20260;-85
2023/05/24 06:02:17;;;;;;;7.68;3.97;;;17.20;99.90;;;;;;10158920;29;20242;-85
2023/05/24 06:07:20;;;;;;;5.03;4.53;;;17.20;99.90;;;;;;10203155;29;20837;-85
2023/05/24 06:12:22;;;;;;;4.45;3.83;;;17.60;99.90;;;;;;10171238;29;20267;-85
2023/05/24 06:17:26;;;;;;;4.88;3.70;;;17.20;99.90;;;;;;10192726;29;20646;-85
2023/05/24 06:22:29;;;;;;;5.57;4.10;;;16.80;99.90;;;;;;10193568;29;20243;-85
2023/05/24 06:27:32;;;;;;;3.67;3.38;;;16.80;99.90;;;;;;10193094;29;20246;-85
2023/05/24 06:32:34;;;;;;;4.53;3.95;;;16.90;99.90;;;;;;10208341;29;20337;-85
2023/05/24 06:37:37;;;;;;;3.45;3.15;;;17.20;99.90;;;;;;10192964;29;20312;-85
2023/05/24 06:42:40;;;;;;;4.15;3.65;;;18.00;99.90;;;;;;10192576;29;20238;-85
2023/05/24 06:47:42;;;;;;;3.35;3.05;;;18.30;99.90;;;;;;10192077;29;20271;-85
2023/05/24 06:52:45;;;;;;;2.30;2.03;;;17.90;99.90;;;;;;10204264;29;20270;-84
2023/05/24 06:57:48;;;;;;;3.78;3.13;;;17.70;99.90;;;;;;10178976;29;20243;-84
2023/05/24 07:02:50;;;;;;;2.92;2.58;;;17.60;99.90;;;;;;10191386;29;20247;-84
2023/05/24 07:07:53;;;;;;;3.70;3.22;;;18.00;99.90;;;;;;10211344;29;20655;-85
2023/05/24 07:12:55;;;;;;;4.47;2.10;;;18.30;99.90;;;;;;10192221;29;20258;-84
2023/05/24 07:17:59;;;;;;;3.30;2.83;;;18.20;99.90;;;;;;10207845;29;20289;-85
2023/05/24 07:23:02;;;;;;;2.72;2.53;;;18.00;99.90;;;;;;10202528;29;20264;-85
2023/05/24 07:28:05;;;;;;;3.13;2.83;;;18.20;99.90;;;;;;10197736;29;20321;-84
2023/05/24 07:33:08;;;;;;;3.17;2.80;;;18.30;99.90;;;;;;10200146;29;20294;-84
2023/05/24 07:38:11;;;;;;;2.33;2.13;;;18.50;99.90;;;;;;10207096;29;20310;-85
2023/05/24 07:43:14;;;;;;;2.42;1.27;;;17.40;99.90;;;;;;10208303;29;20786;-85
2023/05/24 07:48:17;;;;;;;8.50;2.65;;;16.30;99.90;;;;;;10207432;29;20250;-85
2023/05/24 07:53:21;;;;;;;3.33;3.03;;;16.50;99.90;;;;;;10207005;29;20782;-84
2023/05/24 07:58:24;;;;;;;5.25;2.97;;;17.60;99.90;;;;;;10206698;29;20297;-84
2023/05/24 08:03:27;;;;;;;2.20;2.00;;;17.90;99.90;;;;;;10195808;29;20649;-84
2023/05/24 08:08:30;;;;;;;2.72;1.95;;;18.30;99.90;;;;;;10203316;29;20247;-84
2023/05/24 08:13:33;;;;;;;12.75;2.72;;;15.20;99.90;;;;;;10189397;29;20262;-84
2023/05/24 08:18:35;;;;;;;2.05;1.90;;;14.50;99.90;;;;;;10189338;29;20251;-84
2023/05/24 08:23:38;;;;;;;5.03;3.07;;;13.60;99.90;;;;;;10188633;29;20243;-84
2023/05/24 08:28:40;;;;;;;6.23;2.27;;;13.20;99.90;;;;;;10174669;29;20251;-84
2023/05/24 08:33:43;;;;;;;3.37;3.03;;;13.20;99.90;;;;;;10205910;29;20277;-85
2023/05/24 08:38:46;;;;;;;3.43;3.13;;;13.20;99.90;;;;;;10190390;29;20248;-85
2023/05/24 08:43:49;;;;;;;1.17;1.07;;;13.00;99.90;;;;;;10210316;29;20265;-87
2023/05/24 08:48:52;;;;;;;3.83;2.57;;;12.90;99.90;;;;;;10187627;29;20289;-83
2023/05/24 08:53:57;;;;;;;1.80;0.80;;;14.30;99.90;;;;;;10212252;29;20775;-85
2023/05/24 08:59:00;;;;;;;2.73;2.37;;;14.80;99.90;;;;;;10206156;29;20207;-92
2023/05/24 09:04:04;;;;;;;3.00;2.27;;;;;;;;;;10194214;29;20282;-93
2023/05/24 09:09:09;;;;;;;13.83;3.73;;;16.20;99.90;;;;;;10201706;29;20583;-92
2023/05/24 09:14:13;;;;;;;3.73;2.70;;;16.10;99.70;;;;;;10217929;29;20235;-92
2023/05/24 09:19:16;;;;;;;3.67;2.50;;;16.20;99.90;;;;;;10218785;29;20238;-92
2023/05/24 09:24:19;;;;;;;5.53;2.63;;;16.40;99.90;;;;;;10201570;29;20215;-92
2023/05/24 09:29:23;;;;;;;2.88;2.67;;;17.00;99.20;;;;;;10217662;29;20215;-93
2023/05/24 09:34:28;;;;;;;4.13;2.90;;;17.00;99.90;;;;;;10217898;29;20239;-93
2023/05/24 09:39:31;;;;;;;3.13;2.65;;;17.00;99.70;;;;;;10218248;29;20207;-92
2023/05/24 09:44:33;;;;;;;4.07;2.95;;;17.10;98.90;;;;;;10218021;29;20251;-93
2023/05/24 09:49:37;;;;;;;4.15;3.25;;;17.30;99.20;;;;;;10217299;29;20622;-92
2023/05/24 09:54:40;;;;;;;5.93;3.15;;;17.30;99.10;;;;;;10216744;29;20223;-92
2023/05/24 09:59:43;;;;;;;8.75;4.75;;;17.40;99.80;;;;;;10200090;29;20207;-94
2023/05/24 10:04:46;;;;;;;2.38;1.65;;;17.20;96.90;;;;;;10215866;29;20677;-93
2023/05/24 10:09:50;;;;;;;3.35;2.63;;;17.40;99.90;;;;;;10215525;29;20266;-92
2023/05/24 10:14:56;;;;;;;2.13;1.65;;;18.00;99.90;;;;;;10216350;29;20262;-93
2023/05/24 10:19:58;;;;;;;7.00;4.57;;;18.50;98.70;;;;;;10215785;29;20271;-93
2023/05/24 10:25:04;;;;;;;5.18;3.05;;;18.10;94.80;;;;;;10215118;29;20211;-93
2023/05/24 10:30:24;;;;;;;4.38;2.95;;;17.70;98.00;;;;;;10214816;29;20654;-92
2023/05/24 10:35:28;;;;;;;6.40;3.55;;;18.20;99.20;;;;;;10215550;29;20230;-93
2023/05/24 10:40:32;;;;;;;10.60;6.32;;;18.30;95.80;;;;;;10214955;29;20223;-93
2023/05/24 10:45:40;;;;;;;7.60;4.15;;;18.10;95.40;;;;;;10215611;29;20215;-93
2023/05/24 10:50:43;;;;;;;13.50;5.57;;;18.10;98.20;;;;;;10197814;29;20778;-94
2023/05/24 10:56:05;;;;;;;12.70;6.32;;;18.30;95.00;;;;;;10215304;29;20240;-93
2023/05/24 11:01:13;;;;;;;4.85;4.18;;;17.80;95.20;;;;;;10197479;29;20215;-93
2023/05/24 11:06:15;;;;;;;5.55;3.45;;;17.70;95.70;;;;;;10214485;29;20642;-93
2023/05/24 11:11:26;;;;;;;6.15;4.80;;;18.10;98.50;;;;;;10213845;29;20235;-92
2023/05/24 11:16:38;;;;;;;1.52;1.13;;;18.10;97.00;;;;;;10214305;29;20234;-92
2023/05/24 11:21:44;;;;;;;6.53;2.63;;;18.30;99.90;;;;;;10197484;29;20278;-92
2023/05/24 11:26:46;;;;;;;7.35;4.45;;;18.20;98.20;;;;;;10213698;29;20286;-92
2023/05/24 11:31:52;;;;;;;6.15;4.53;;;18.40;96.60;;;;;;10196596;29;20231;-93
2023/05/24 11:36:55;;;;;;;7.05;4.82;;;18.20;96.70;;;;;;10213266;29;20239;-93
2023/05/24 11:41:59;;;;;;;7.60;5.40;;;17.80;97.10;;;;;;10213044;29;20262;-92
2023/05/24 11:47:03;;;;;;;4.28;3.47;;;18.10;98.40;;;;;;10196556;29;20211;-93
2023/05/24 11:52:06;;;;;;;3.78;2.60;;;18.00;99.70;;;;;;10212563;29;20755;-93
2023/05/24 11:57:12;;;;;;;6.55;5.55;;;18.50;98.60;;;;;;10212521;29;20211;-94
2023/05/24 12:02:15;;;;;;;4.25;3.50;;;18.50;95.20;;;;;;10212154;29;20219;-93
2023/05/24 12:07:18;;;;;;;6.78;5.05;;;18.00;97.70;;;;;;10212551;29;20633;-93
2023/05/24 12:12:21;;;;;;;7.30;4.90;;;17.60;97.90;;;;;;10211794;29;20235;-93
2023/05/24 12:17:35;;;;;;;6.45;4.55;;;17.50;98.50;;;;;;10195009;29;20215;-93
2023/05/24 12:22:38;;;;;;;6.75;4.95;;;17.40;99.50;;;;;;10211737;29;20211;-94
2023/05/24 12:27:47;;;;;;;5.70;4.53;;;17.60;98.00;;;;;;10212384;29;20240;-93
2023/05/24 12:32:53;;;;;;;8.25;4.43;;;17.60;98.40;;;;;;10211829;29;20754;-92
2023/05/24 12:37:59;;;;;;;5.15;3.28;;;17.30;98.90;;;;;;10211546;29;20202;-93
2023/05/24 12:43:03;;;;;;;6.03;2.95;;;17.50;99.90;;;;;;10219993;29;20578;-94
2023/05/24 12:48:07;;;;;;;5.50;3.78;;;18.00;99.90;;;;;;10219908;29;20629;-94
2023/05/24 12:53:10;;;;;;;15.52;6.10;;;17.90;99.90;;;;;;10219019;29;20282;-93
2023/05/24 12:58:15;;;;;;;9.40;4.65;;;17.70;96.50;;;;;;10202610;29;20266;-92
2023/05/24 13:03:18;;;;;;;14.80;7.00;;;17.30;99.60;;;;;;10218635;29;20571;-92
2023/05/24 13:08:21;;;;;;;6.70;4.82;;;17.20;95.90;;;;;;10218589;29;20902;-93
2023/05/24 13:13:24;;;;;;;12.80;7.18;;;16.80;99.90;;;;;;10202174;29;20230;-95
2023/05/24 13:18:26;;;;;;;8.85;6.00;;;17.10;97.50;;;;;;10201910;29;20211;-93
2023/05/24 13:23:30;;;;;;;8.25;4.90;;;16.80;99.90;;;;;;10218609;29;20207;-93
2023/05/24 13:28:33;;;;;;;14.75;7.18;;;16.80;99.40;;;;;;10219452;29;20207;-93
2023/05/24 13:33:36;;;;;;;5.95;3.85;;;16.90;98.70;;;;;;10217343;29;20235;-94
2023/05/24 13:38:39;;;;;;;5.32;3.75;;;17.00;99.90;;;;;;10218116;29;20211;-93
2023/05/24 13:43:42;;;;;;;6.22;4.53;;;16.80;99.90;;;;;;10216889;29;20258;-92
2023/05/24 13:48:44;;;;;;;5.57;4.18;;;16.80;99.90;;;;;;10217627;29;20219;-94
2023/05/24 13:53:47;;;;;;;5.28;3.47;;;17.10;99.90;;;;;;10217170;29;20254;-93
2023/05/24 13:58:50;;;;;;;13.88;6.15;;;17.00;99.90;;;;;;10217376;29;20619;-93
2023/05/24 14:03:53;;;;;;;19.35;6.22;;;17.00;99.90;;;;;;10217229;29;20643;-94
2023/05/24 14:08:55;;;;;;;8.10;5.38;;;16.50;99.80;;;;;;10217074;29;20262;-93
2023/05/24 14:13:59;;;;;;;6.72;4.70;;;17.10;99.90;;;;;;10216954;29;20915;-93
2023/05/24 14:19:05;;;;;;;9.40;4.35;;;17.60;99.90;;;;;;10215847;29;20243;-95
2023/05/24 14:24:08;;;;;;;6.50;5.03;;;17.80;99.90;;;;;;10215471;29;20255;-92
2023/05/24 14:29:11;;;;;;;5.95;3.53;;;17.80;99.90;;;;;;10215140;29;20215;-93
2023/05/24 14:34:13;;;;;;;6.07;3.80;;;18.00;99.90;;;;;;10215828;29;20267;-93
2023/05/24 14:39:16;;;;;;;9.85;5.90;;;17.70;99.90;;;;;;10216352;29;20203;-94
2023/05/24 14:44:18;;;;;;;7.05;4.30;;;17.20;98.00;;;;;;10198384;29;20256;-94
2023/05/24 14:49:21;;;;;;;12.32;5.00;;;17.00;99.90;;;;;;10214488;29;20207;-92
2023/05/24 14:54:23;;;;;;;4.25;3.10;;;17.20;99.90;;;;;;10197817;29;20606;-94
2023/05/24 14:59:26;;;;;;;7.10;5.20;;;17.50;99.90;;;;;;10214369;29;20246;-92
2023/05/24 15:04:29;;;;;;;10.15;5.07;;;17.50;99.50;;;;;;10197112;29;20211;-93
2023/05/24 15:09:31;;;;;;;5.15;3.83;;;17.40;99.90;;;;;;10215498;29;20250;-92
2023/05/24 15:14:34;;;;;;;11.02;6.28;;;17.40;99.90;;;;;;10198900;29;20231;-93
2023/05/24 15:19:37;;;;;;;8.02;4.25;;;17.40;99.90;;;;;;10214970;29;20215;-93
2023/05/24 15:24:39;;;;;;;9.55;5.15;;;17.40;99.90;;;;;;10197375;29;20624;-93
2023/05/24 15:29:42;;;;;;;5.15;3.88;;;17.40;99.90;;;;;;10214792;29;20243;-93
2023/05/24 15:34:44;;;;;;;7.68;4.28;;;17.50;99.90;;;;;;10214141;29;20294;-93
2023/05/24 15:39:48;;;;;;;7.07;4.97;;;17.00;99.90;;;;;;10196753;29;20672;-94
2023/05/24 15:44:50;;;;;;;8.27;5.22;;;16.80;99.90;;;;;;10214193;29;20211;-93
2023/05/24 15:49:53;;;;;;;5.55;3.97;;;16.90;99.90;;;;;;10212367;29;20223;-94
2023/05/24 15:54:56;;;;;;;10.25;5.43;;;16.50;99.90;;;;;;10196841;29;20230;-94
2023/05/24 16:00:00;;;;;;;11.70;6.43;;;16.40;99.90;;;;;;10212707;29;20689;-94
2023/05/24 16:05:02;;;;;;;7.90;5.65;;;16.10;99.90;;;;;;10212974;29;20578;-93
2023/05/24 16:10:05;;;;;;;6.40;5.07;;;16.10;99.90;;;;;;10212054;29;20618;-94
2023/05/24 16:15:09;;;;;;;8.43;4.75;;;16.20;99.90;;;;;;10195397;29;20259;-93
2023/05/24 16:20:11;;;;;;;8.40;4.55;;;16.40;99.90;;;;;;10212470;29;20251;-94
2023/05/24 16:25:14;;;;;;;9.85;5.72;;;16.70;99.90;;;;;;10194768;29;20567;-93
2023/05/24 16:30:17;;;;;;;7.05;4.45;;;16.60;99.90;;;;;;10211583;29;20235;-94
2023/05/24 16:35:20;;;;;;;6.82;4.80;;;16.50;99.90;;;;;;10211361;29;20234;-94
2023/05/24 16:40:22;;;;;;;5.93;4.25;;;16.70;99.90;;;;;;10210814;29;20227;-94
2023/05/24 16:45:25;;;;;;;8.52;4.38;;;16.30;99.90;;;;;;10211635;29;20664;-93
2023/05/24 16:50:27;;;;;;;8.88;5.30;;;16.30;99.90;;;;;;10211349;29;20226;-93
2023/05/24 16:55:30;;;;;;;10.52;6.13;;;16.20;99.90;;;;;;10194513;29;20274;-93
2023/05/24 17:00:32;;;;;;;8.43;4.90;;;15.80;99.90;;;;;;10211847;29;20613;-93
2023/05/24 17:05:35;;;;;;;4.57;3.85;;;16.00;99.90;;;;;;10211800;29;20203;-93
2023/05/24 17:10:37;;;;;;;6.53;4.82;;;15.90;99.90;;;;;;10194232;29;20215;-92
2023/05/24 17:15:40;;;;;;;4.10;3.28;;;16.00;99.90;;;;;;10210458;29;20310;-94
2023/05/24 17:20:43;;;;;;;9.30;6.13;;;16.00;99.90;;;;;;10211316;29;20676;-94
2023/05/24 17:25:46;;;;;;;4.93;4.50;;;16.10;99.90;;;;;;10213077;29;20211;-93
2023/05/24 17:30:48;;;;;;;7.28;4.05;;;15.70;99.90;;;;;;10218389;29;20207;-93
2023/05/24 17:35:51;;;;;;;3.25;2.95;;;15.80;99.90;;;;;;10217652;29;20231;-93
2023/05/24 17:40:58;;;;;;;8.25;6.20;;;15.60;99.90;;;;;;10201942;29;20771;-94
2023/05/24 17:46:02;;;;;;;7.70;6.10;;;15.20;99.90;;;;;;10201127;29;20685;-93
2023/05/24 17:51:07;;;;;;;7.25;5.07;;;15.10;99.90;;;;;;10201090;29;20219;-93
2023/05/24 17:56:10;;;;;;;4.75;3.70;;;15.20;99.90;;;;;;10216883;29;20251;-93
2023/05/24 18:01:14;;;;;;;10.98;5.75;;;15.00;99.90;;;;;;10217564;29;20207;-93
2023/05/24 18:06:16;;;;;;;4.85;4.32;;;15.10;99.90;;;;;;10217301;29;20270;-93
2023/05/24 18:11:19;;;;;;;9.38;6.82;;;15.50;99.90;;;;;;10216632;29;20207;-94
2023/05/24 18:16:21;;;;;;;11.40;6.95;;;15.20;99.90;;;;;;10216695;29;20621;-94
2023/05/24 18:21:24;;;;;;;9.23;7.03;;;15.30;99.90;;;;;;10216731;29;20798;-93
2023/05/24 18:26:26;;;;;;;9.85;7.03;;;15.10;99.90;;;;;;10214796;29;20207;-94
2023/05/24 18:31:29;;;;;;;7.45;5.95;;;15.10;99.90;;;;;;10215681;29;20215;-94
2023/05/24 18:36:32;;;;;;;7.25;5.30;;;15.20;99.90;;;;;;10215959;29;20697;-93
2023/05/24 18:41:34;;;;;;;11.90;6.85;;;15.20;99.90;;;;;;10198182;29;20556;-93
2023/05/24 18:46:37;;;;;;;7.47;4.50;;;15.30;99.90;;;;;;10198276;29;20258;-94
2023/05/24 18:51:40;;;;;;;5.70;3.88;;;15.30;99.90;;;;;;10215240;29;20211;-93
2023/05/24 18:56:44;;;;;;;6.78;5.65;;;15.70;99.90;;;;;;10198442;29;20230;-93
2023/05/24 19:01:47;;;;;;;9.75;6.18;;;15.70;99.90;;;;;;10215261;29;20282;-93
2023/05/24 19:06:49;;;;;;;7.60;4.93;;;15.70;99.90;;;;;;10214639;29;20239;-93
2023/05/24 19:11:57;;;;;;;5.53;4.95;;;15.40;99.90;;;;;;10198068;29;20231;-93
2023/05/24 19:17:00;;;;;;;6.18;4.75;;;15.70;99.90;;;;;;10197716;29;20203;-93
2023/05/24 19:22:03;;;;;;;4.80;4.28;;;15.70;99.90;;;;;;10213690;29;20219;-95
2023/05/24 19:27:05;;;;;;;8.85;5.75;;;15.60;99.90;;;;;;10214116;29;20215;-93
2023/05/24 19:32:10;;;;;;;4.50;3.97;;;15.30;99.90;;;;;;10180757;29;20618;-93
2023/05/24 19:37:14;;;;;;;7.43;5.18;;;15.30;99.90;;;;;;10212716;29;20207;-93
2023/05/24 19:42:17;;;;;;;6.80;5.75;;;15.40;99.90;;;;;;10204787;29;20583;-93
2023/05/24 19:47:19;;;;;;;5.68;4.72;;;15.60;99.90;;;;;;10212131;29;20281;-93
2023/05/24 19:52:22;;;;;;;7.45;5.57;;;15.40;99.90;;;;;;10196281;29;20247;-94
2023/05/24 19:57:25;;;;;;;10.98;6.90;;;15.60;99.90;;;;;;10212993;29;20211;-93
2023/05/24 20:02:27;;;;;;;6.65;5.72;;;15.70;99.90;;;;;;10213720;29;20262;-93
2023/05/24 20:07:30;;;;;;;12.43;6.13;;;15.70;99.90;;;;;;10212926;29;20582;-95
2023/05/24 20:12:33;;;;;;;8.55;6.50;;;16.00;99.90;;;;;;10196382;29;20227;-94
2023/05/24 20:17:36;;;;;;;5.00;4.35;;;15.70;99.90;;;;;;10212065;29;20239;-95
2023/05/24 20:22:38;;;;;;;6.95;5.03;;;15.70;99.90;;;;;;10211811;29;20223;-94
2023/05/24 20:27:41;;;;;;;4.13;3.72;;;15.60;99.90;;;;;;10212130;29;20210;-95
2023/05/24 20:32:44;;;;;;;6.28;5.57;;;15.60;99.90;;;;;;10194461;29;20724;-94
2023/05/24 20:37:47;;;;;;;7.85;5.32;;;15.40;99.90;;;;;;10211913;29;20203;-94
2023/05/24 20:42:50;;;;;;;3.88;3.45;;;15.30;99.90;;;;;;10211957;29;20262;-94
2023/05/24 20:47:53;;;;;;;8.05;5.25;;;15.40;99.90;;;;;;10210163;29;20243;-94
2023/05/24 20:52:56;;;;;;;7.05;5.63;;;15.50;99.90;;;;;;10211995;29;20644;-94
2023/05/24 20:57:58;;;;;;;5.97;4.75;;;15.10;99.90;;;;;;10211915;29;20270;-95
2023/05/24 21:03:01;;;;;;;5.90;4.20;;;15.10;99.90;;;;;;10217363;29;20614;-94
2023/05/24 21:08:03;;;;;;;7.80;5.40;;;15.20;99.90;;;;;;10201962;29;20626;-95
2023/05/24 21:13:06;;;;;;;4.68;3.90;;;15.30;99.90;;;;;;10218785;29;20274;-94
2023/05/24 21:18:08;;;;;;;11.88;6.47;;;15.50;99.90;;;;;;10217707;29;20215;-94
2023/05/24 21:23:11;;;;;;;7.03;5.20;;;15.30;99.90;;;;;;10218815;29;20634;-95
2023/05/24 21:28:14;;;;;;;4.60;4.00;;;15.40;99.90;;;;;;10217798;29;20589;-95
2023/05/24 21:33:16;;;;;;;8.30;5.18;;;15.50;99.90;;;;;;10209967;29;20575;-93
2023/05/24 21:38:19;;;;;;;5.63;5.05;;;15.60;99.90;;;;;;10201048;29;20736;-94
2023/05/24 21:43:22;;;;;;;6.97;5.88;;;15.70;99.90;;;;;;10217788;29;20571;-94
2023/05/24 21:48:25;;;;;;;7.03;6.20;;;15.70;99.90;;;;;;10217584;29;20238;-95
2023/05/24 21:53:28;;;;;;;6.93;5.35;;;15.50;99.90;;;;;;10217941;29;20227;-94
2023/05/24 21:58:30;;;;;;;7.05;4.95;;;15.40;99.90;;;;;;10216192;29;20575;-95
2023/05/24 22:03:33;;;;;;;6.80;5.55;;;15.60;99.90;;;;;;10217410;29;20269;-95
2023/05/24 22:08:36;;;;;;;7.97;6.38;;;15.70;99.90;;;;;;10200655;29;20576;-94
2023/05/24 22:13:39;;;;;;;8.05;5.38;;;15.50;99.90;;;;;;10200446;29;20235;-94
2023/05/24 22:18:41;;;;;;;9.20;5.30;;;15.30;99.90;;;;;;10217139;29;20575;-94
2023/05/24 22:23:44;;;;;;;5.93;5.25;;;15.20;99.90;;;;;;10217183;29;20211;-94
2023/05/24 22:28:55;;;;;;;7.40;5.13;;;15.30;99.90;;;;;;10216765;29;20252;-95
2023/05/24 22:34:00;;;;;;;4.38;3.95;;;15.40;99.90;;;;;;10199486;29;20282;-94
2023/05/24 22:39:04;;;;;;;11.68;6.10;;;15.60;99.90;;;;;;10198714;29;20282;-95
2023/05/24 22:44:06;;;;;;;5.30;4.55;;;15.60;99.90;;;;;;10216087;29;20211;-94
2023/05/24 22:49:12;;;;;;;6.20;5.53;;;15.90;99.90;;;;;;10198600;29;20996;-94
2023/05/24 22:54:15;;;;;;;7.30;6.00;;;15.70;99.90;;;;;;10214751;29;20285;-94
2023/05/24 22:59:17;;;;;;;4.90;3.75;;;15.60;99.90;;;;;;10214417;29;20211;-95
2023/05/24 23:04:20;;;;;;;5.97;5.07;;;15.60;99.90;;;;;;10215309;29;20211;-95
2023/05/24 23:09:33;;;;;;;7.05;5.45;;;15.50;99.90;;;;;;10198687;29;20236;-95
2023/05/24 23:14:37;;;;;;;8.35;5.40;;;15.30;99.90;;;;;;10215076;29;20263;-95
2023/05/24 23:19:42;;;;;;;11.13;6.32;;;15.50;99.90;;;;;;10214825;29;20622;-95
2023/05/24 23:24:46;;;;;;;7.70;5.80;;;15.50;99.90;;;;;;10213999;29;20207;-94
2023/05/24 23:29:48;;;;;;;8.35;5.68;;;15.30;99.90;;;;;;10214305;29;20211;-94
2023/05/24 23:34:51;;;;;;;5.47;4.97;;;15.40;99.90;;;;;;10213926;29;20230;-94
2023/05/24 23:39:54;;;;;;;11.25;4.80;;;15.50;99.90;;;;;;10196466;29;20207;-95
2023/05/24 23:44:56;;;;;;;7.72;5.53;;;15.40;99.90;;;;;;10196643;29;20214;-94
2023/05/24 23:49:59;;;;;;;8.27;5.80;;;15.30;99.90;;;;;;10196007;29;20218;-94
2023/05/24 23:55:02;;;;;;;5.63;4.65;;;15.20;99.90;;;;;;10213339;29;20227;-94
